createdAt,value
2023-05-08T00:00:00.000Z,20.96
2023-05-08T00:15:00.000Z,21.96
2023-05-08T00:30:00.000Z,22.04
2023-05-08T00:45:00.000Z,22.31
2023-05-08T01:00:00.000Z,22.92
2023-05-08T01:15:00.000Z,23.54
2023-05-08T01:30:00.000Z,24.64
2023-05-08T01:45:00.000Z,24.42
2023-05-08T02:00:00.000Z,23.24
2023-05-08T02:15:00.000Z,23.26
2023-05-08T02:30:00.000Z,24.33
2023-05-08T02:45:00.000Z,24.11
2023-05-08T03:00:00.000Z,25.89
2023-05-08T03:15:00.000Z,27.8
2023-05-08T03:30:00.000Z,29.4
2023-05-08T03:45:00.000Z,30.72
2023-05-08T04:00:00.000Z,31.03
2023-05-08T04:15:00.000Z,31.34
2023-05-08T04:30:00.000Z,32.02
2023-05-08T04:45:00.000Z,32.86
2023-05-08T05:00:00.000Z,34.73
2023-05-08T05:15:00.000Z,34.96
2023-05-08T05:30:00.000Z,36.32
2023-05-08T05:45:00.000Z,34.46
2023-05-08T06:00:00.000Z,35.72
2023-05-08T06:15:00.000Z,34.69
2023-05-08T06:30:00.000Z,32.36
2023-05-08T06:45:00.000Z,35.74
2023-05-08T07:00:00.000Z,36.61
2023-05-08T07:15:00.000Z,35.58
2023-05-08T07:30:00.000Z,35.29
2023-05-08T07:45:00.000Z,36.08
2023-05-08T08:00:00.000Z,35.5
2023-05-08T08:15:00.000Z,35.16
2023-05-08T08:30:00.000Z,35.92
2023-05-08T08:45:00.000Z,34.26
2023-05-08T09:00:00.000Z,34.25
2023-05-08T09:15:00.000Z,36.04
2023-05-08T09:30:00.000Z,34.81
2023-05-08T09:45:00.000Z,35.32
2023-05-08T10:00:00.000Z,35.93
2023-05-08T10:15:00.000Z,37.06
2023-05-08T10:30:00.000Z,39.5
2023-05-08T10:45:00.000Z,40.38
2023-05-08T11:00:00.000Z,39.5
2023-05-08T11:15:00.000Z,38.48
2023-05-08T11:30:00.000Z,38.46
2023-05-08T11:45:00.000Z,40.63
2023-05-08T12:00:00.000Z,42.6
2023-05-08T12:15:00.000Z,42.94
2023-05-08T12:30:00.000Z,41.3
2023-05-08T12:45:00.000Z,40.96
2023-05-08T13:00:00.000Z,39.73
2023-05-08T13:15:00.000Z,36.31
2023-05-08T13:30:00.000Z,35
2023-05-08T13:45:00.000Z,31.67
2023-05-08T14:00:00.000Z,29.34
2023-05-08T14:15:00.000Z,28.01
2023-05-08T14:30:00.000Z,27.09
2023-05-08T14:45:00.000Z,28.84
2023-05-08T15:00:00.000Z,31.17
2023-05-08T15:15:00.000Z,31.88
2023-05-08T15:30:00.000Z,29.66
2023-05-08T15:45:00.000Z,29.5
2023-05-08T16:00:00.000Z,29.89
2023-05-08T16:15:00.000Z,29.53
2023-05-08T16:30:00.000Z,31.33
2023-05-08T16:45:00.000Z,28.97
2023-05-08T17:00:00.000Z,29.09
2023-05-08T17:15:00.000Z,25.33
2023-05-08T17:30:00.000Z,21.7
2023-05-08T17:45:00.000Z,21.46
2023-05-08T18:00:00.000Z,17.84
2023-05-08T18:15:00.000Z,14.34
2023-05-08T18:30:00.000Z,14.8
2023-05-08T18:45:00.000Z,17.29
2023-05-08T19:00:00.000Z,19.62
2023-05-08T19:15:00.000Z,22.22
2023-05-08T19:30:00.000Z,22.33
2023-05-08T19:45:00.000Z,22.49
2023-05-08T20:00:00.000Z,21.23
2023-05-08T20:15:00.000Z,24.72
2023-05-08T20:30:00.000Z,23.58
2023-05-08T20:45:00.000Z,15.18
2023-05-08T21:00:00.000Z,13.23
2023-05-08T21:15:00.000Z,13.46
2023-05-08T21:30:00.000Z,13.52
2023-05-08T21:45:00.000Z,13.71
2023-05-08T22:00:00.000Z,12.83
2023-05-08T22:15:00.000Z,12.44
2023-05-08T22:30:00.000Z,16.6
2023-05-08T22:45:00.000Z,16.25
2023-05-08T23:00:00.000Z,14.95
2023-05-08T23:15:00.000Z,14.48
2023-05-08T23:30:00.000Z,14.96
2023-05-08T23:45:00.000Z,15.56
